createdAt,value
2023-05-14T00:04:41.396Z,11.82
2023-05-14T00:09:44.226Z,11.73
2023-05-14T00:14:46.896Z,11.67
2023-05-14T00:19:49.604Z,11.64
2023-05-14T00:24:52.525Z,11.53
2023-05-14T00:29:55.238Z,11.50
2023-05-14T00:34:58.745Z,11.53
2023-05-14T00:40:07.027Z,11.45
2023-05-14T00:45:10.320Z,11.39
2023-05-14T00:50:16.557Z,11.34
2023-05-14T00:55:19.760Z,11.35
2023-05-14T01:00:23.026Z,11.36
2023-05-14T01:05:30.325Z,11.36
2023-05-14T01:10:42.419Z,11.43
2023-05-14T01:15:47.866Z,11.43
2023-05-14T01:20:53.865Z,11.46
2023-05-14T01:25:56.587Z,11.47
2023-05-14T01:31:10.767Z,11.46
2023-05-14T01:36:13.793Z,11.47
2023-05-14T01:41:18.531Z,11.49
2023-05-14T01:46:22.002Z,11.46
2023-05-14T01:51:24.809Z,11.52
2023-05-14T01:56:27.845Z,11.57
2023-05-14T02:01:30.791Z,11.64
2023-05-14T02:06:33.781Z,11.86
2023-05-14T02:11:36.686Z,12.03
2023-05-14T02:16:39.457Z,12.21
2023-05-14T02:21:42.249Z,12.39
2023-05-14T02:26:44.945Z,12.65
2023-05-14T02:31:47.638Z,12.98
2023-05-14T02:36:51.267Z,13.26
2023-05-14T02:41:53.982Z,13.47
2023-05-14T02:46:56.841Z,13.71
2023-05-14T02:52:01.196Z,14.13
2023-05-14T02:57:03.912Z,14.54
2023-05-14T03:02:06.803Z,14.82
2023-05-14T03:07:09.966Z,15.27
2023-05-14T03:12:13.157Z,15.68
2023-05-14T03:17:15.868Z,16.03
2023-05-14T03:22:18.720Z,16.41
2023-05-14T03:27:23.822Z,16.84
2023-05-14T03:32:26.681Z,17.31
2023-05-14T03:37:29.535Z,18.02
2023-05-14T03:42:32.353Z,18.93
2023-05-14T03:47:34.963Z,20.13
2023-05-14T03:52:37.577Z,21.04
2023-05-14T03:57:40.886Z,21.95
2023-05-14T04:02:43.811Z,22.77
2023-05-14T04:07:47.116Z,23.53
2023-05-14T04:12:49.825Z,24.37
2023-05-14T04:17:52.656Z,25.05
2023-05-14T04:22:55.555Z,25.79
2023-05-14T04:27:59.008Z,26.39
2023-05-14T04:33:01.993Z,26.87
2023-05-14T04:38:04.589Z,27.43
2023-05-14T04:43:08.316Z,28.01
2023-05-14T04:48:10.925Z,28.33
2023-05-14T04:53:13.666Z,28.79
2023-05-14T04:58:16.354Z,29.32
2023-05-14T05:03:19.240Z,29.39
2023-05-14T05:08:21.761Z,29.97
2023-05-14T05:13:24.122Z,30.23
2023-05-14T05:18:26.867Z,30.78
2023-05-14T05:23:29.583Z,31.52
2023-05-14T05:28:32.707Z,31.78
2023-05-14T05:33:36.088Z,32.03
2023-05-14T05:38:38.634Z,32.41
2023-05-14T05:43:41.541Z,32.73
2023-05-14T05:48:44.332Z,33.03
2023-05-14T05:53:47.183Z,33.17
2023-05-14T05:58:49.981Z,33.63
2023-05-14T06:03:53.389Z,33.85
2023-05-14T06:08:56.159Z,34.09
2023-05-14T06:13:58.932Z,34.49
2023-05-14T06:19:02.394Z,34.59
2023-05-14T06:24:06.484Z,34.83
2023-05-14T06:29:09.049Z,35.28
2023-05-14T06:34:11.838Z,35.28
2023-05-14T06:39:14.486Z,35.57
2023-05-14T06:44:19.392Z,35.32
2023-05-14T06:49:21.985Z,35.38
2023-05-14T06:54:26.034Z,35.55
2023-05-14T06:59:28.822Z,36.01
2023-05-14T07:04:31.803Z,36.10
2023-05-14T07:09:34.492Z,36.61
2023-05-14T07:14:37.286Z,36.89
2023-05-14T07:19:40.254Z,36.63
2023-05-14T07:24:43.094Z,36.94
2023-05-14T07:29:45.776Z,36.75
2023-05-14T07:34:49.152Z,36.75
2023-05-14T07:39:53.107Z,36.85
2023-05-14T07:44:59.116Z,37.07
2023-05-14T07:50:02.744Z,36.89
2023-05-14T07:55:09.533Z,36.89
2023-05-14T08:00:13.136Z,36.62
2023-05-14T08:05:17.060Z,36.48
2023-05-14T08:10:20.773Z,35.21
2023-05-14T08:15:27.882Z,35.36
2023-05-14T08:20:34.798Z,35.71
2023-05-14T08:25:38.291Z,36.21
2023-05-14T08:30:41.160Z,36.13
2023-05-14T08:35:44.002Z,36.23
2023-05-14T08:40:58.153Z,36.01
2023-05-14T08:46:04.801Z,36.18
2023-05-14T08:51:09.227Z,36.12
2023-05-14T08:56:13.097Z,36.39
2023-05-14T09:01:16.049Z,36.25
2023-05-14T09:06:19.504Z,35.80
2023-05-14T09:11:22.170Z,35.92
2023-05-14T09:16:26.549Z,36.05
2023-05-14T09:21:31.584Z,36.11
2023-05-14T09:26:36.358Z,36.20
2023-05-14T09:32:00.586Z,36.09
2023-05-14T09:37:05.855Z,35.57
2023-05-14T09:42:45.862Z,35.19
2023-05-14T09:47:49.104Z,35.60
2023-05-14T09:52:51.940Z,35.52
2023-05-14T09:57:54.650Z,35.39
2023-05-14T10:02:59.008Z,35.50
2023-05-14T10:08:06.416Z,35.79
2023-05-14T10:13:17.858Z,35.06
2023-05-14T10:18:24.499Z,35.15
2023-05-14T10:23:27.584Z,34.85
2023-05-14T10:28:31.292Z,33.88
2023-05-14T10:33:47.371Z,34.62
2023-05-14T10:38:56.836Z,34.64
2023-05-14T10:43:59.833Z,34.51
2023-05-14T10:49:02.593Z,34.19
2023-05-14T10:54:08.662Z,33.87
2023-05-14T10:59:11.842Z,33.78
2023-05-14T11:04:24.344Z,33.45
2023-05-14T11:09:27.378Z,32.53
2023-05-14T11:14:30.062Z,31.37
2023-05-14T11:19:32.494Z,31.13
2023-05-14T11:24:35.163Z,30.79
2023-05-14T11:29:38.491Z,29.87
2023-05-14T11:34:42.594Z,28.69
2023-05-14T11:39:54.181Z,27.92
2023-05-14T11:44:56.996Z,27.29
2023-05-14T11:50:01.222Z,27.06
2023-05-14T11:55:05.351Z,27.24
2023-05-14T12:00:21.806Z,27.24
2023-05-14T12:05:25.746Z,27.13
2023-05-14T12:10:28.355Z,27.04
2023-05-14T12:15:31.775Z,27.25
2023-05-14T12:20:35.972Z,27.49
2023-05-14T12:25:39.201Z,27.45
2023-05-14T12:30:42.075Z,27.22
2023-05-14T12:35:45.297Z,27.10
2023-05-14T12:40:48.109Z,26.75
2023-05-14T12:45:50.914Z,26.81
2023-05-14T12:50:53.531Z,26.68
2023-05-14T12:55:56.247Z,26.72
2023-05-14T13:00:59.153Z,26.78
2023-05-14T13:06:02.005Z,26.33
2023-05-14T13:11:06.216Z,26.20
2023-05-14T13:16:09.119Z,26.10
2023-05-14T13:21:12.888Z,25.86
2023-05-14T13:26:16.286Z,25.73
2023-05-14T13:31:19.164Z,25.51
2023-05-14T13:36:21.932Z,25.35
2023-05-14T13:41:26.631Z,25.18
2023-05-14T13:46:29.612Z,24.97
2023-05-14T13:51:32.164Z,24.88
2023-05-14T13:56:36.143Z,24.74
2023-05-14T14:01:38.857Z,24.57
2023-05-14T14:06:41.821Z,24.48
2023-05-14T14:11:45.746Z,24.50
2023-05-14T14:16:48.592Z,24.50
2023-05-14T14:26:58.661Z,24.50
2023-05-14T14:32:01.730Z,24.43
2023-05-14T14:37:04.811Z,24.20
2023-05-14T14:42:07.745Z,24.08
2023-05-14T14:47:10.581Z,23.86
2023-05-14T14:52:13.255Z,23.57
2023-05-14T14:57:16.012Z,23.46
2023-05-14T15:02:18.902Z,23.32
2023-05-14T15:07:22.932Z,23.31
2023-05-14T15:12:25.743Z,23.26
2023-05-14T15:17:28.336Z,23.15
2023-05-14T15:22:31.127Z,23.11
2023-05-14T15:27:33.670Z,23.01
2023-05-14T15:32:36.855Z,22.90
2023-05-14T15:37:41.622Z,22.73
2023-05-14T15:42:44.708Z,22.64
2023-05-14T15:47:47.311Z,22.44
2023-05-14T15:52:50.250Z,22.23
2023-05-14T15:57:53.691Z,22.00
2023-05-14T16:02:56.618Z,21.82
2023-05-14T16:07:59.841Z,21.61
2023-05-14T16:13:02.832Z,21.36
2023-05-14T16:18:05.683Z,21.08
2023-05-14T16:23:08.583Z,20.80
2023-05-14T16:28:11.362Z,20.46
2023-05-14T16:33:14.103Z,20.18
2023-05-14T16:38:17.120Z,19.95
2023-05-14T16:43:20.067Z,19.69
2023-05-14T16:48:24.152Z,19.49
2023-05-14T16:53:26.877Z,19.33
2023-05-14T16:58:29.711Z,19.25
2023-05-14T17:03:32.532Z,19.09
2023-05-14T17:08:36.052Z,18.94
2023-05-14T17:13:38.902Z,18.75
2023-05-14T17:18:41.631Z,18.59
2023-05-14T17:23:45.873Z,18.42
2023-05-14T17:28:48.745Z,18.27
2023-05-14T17:33:51.433Z,18.18
2023-05-14T17:38:54.465Z,18.04
2023-05-14T17:43:57.394Z,17.95
2023-05-14T17:49:00.909Z,17.85
2023-05-14T17:54:04.251Z,17.78
2023-05-14T17:59:07.302Z,17.70
2023-05-14T18:04:10.869Z,17.70
2023-05-14T18:09:13.944Z,17.63
2023-05-14T18:14:18.867Z,17.60
2023-05-14T18:19:21.405Z,17.55
2023-05-14T18:24:24.186Z,17.47
2023-05-14T18:29:27.199Z,17.41
2023-05-14T18:34:29.976Z,17.27
2023-05-14T18:39:32.568Z,17.27
2023-05-14T18:44:35.349Z,17.23
2023-05-14T18:49:40.422Z,17.14
2023-05-14T18:54:42.955Z,16.99
2023-05-14T18:59:45.582Z,16.82
2023-05-14T19:04:52.714Z,16.66
2023-05-14T19:09:56.206Z,16.58
2023-05-14T19:14:59.126Z,16.61
2023-05-14T19:20:01.815Z,16.52
2023-05-14T19:25:08.367Z,16.42
2023-05-14T19:30:12.202Z,16.34
2023-05-14T19:35:15.052Z,16.28
2023-05-14T19:40:17.973Z,16.28
2023-05-14T19:45:22.474Z,16.16
2023-05-14T19:50:25.310Z,16.08
2023-05-14T19:55:27.910Z,16.12
2023-05-14T20:00:31.102Z,16.07
2023-05-14T20:05:39.550Z,16.01
2023-05-14T20:10:42.801Z,15.90
2023-05-14T20:15:45.786Z,15.88
2023-05-14T20:20:49.304Z,16.00
2023-05-14T20:25:52.111Z,16.21
2023-05-14T20:30:55.492Z,16.09
2023-05-14T20:35:58.597Z,15.85
2023-05-14T20:41:01.288Z,15.84
2023-05-14T20:46:06.011Z,15.91
2023-05-14T20:51:08.818Z,15.92
2023-05-14T20:56:11.761Z,15.85
2023-05-14T21:01:14.634Z,16.03
2023-05-14T21:06:18.803Z,16.15
2023-05-14T21:11:23.178Z,16.15
2023-05-14T21:16:26.039Z,16.21
2023-05-14T21:21:28.686Z,16.30
2023-05-14T21:26:37.113Z,16.35
2023-05-14T21:31:39.764Z,16.35
2023-05-14T21:36:42.749Z,16.41
2023-05-14T21:41:45.406Z,16.36
2023-05-14T21:46:48.443Z,16.33
2023-05-14T21:51:53.307Z,16.29
2023-05-14T21:56:56.224Z,16.12
2023-05-14T22:07:05.160Z,15.93
2023-05-14T22:12:08.162Z,15.76
2023-05-14T22:17:13.016Z,15.56
2023-05-14T22:22:15.684Z,15.39
2023-05-14T22:27:18.728Z,15.34
2023-05-14T22:32:21.908Z,15.33
2023-05-14T22:37:24.845Z,15.29
2023-05-14T22:42:28.713Z,15.29
2023-05-14T22:47:31.826Z,15.38
2023-05-14T22:52:34.613Z,15.55
2023-05-14T22:57:37.573Z,15.54
2023-05-14T23:02:40.625Z,15.52
2023-05-14T23:07:43.919Z,15.54
2023-05-14T23:12:46.751Z,15.65
2023-05-14T23:17:49.702Z,15.74
2023-05-14T23:22:52.690Z,15.77
2023-05-14T23:27:55.672Z,15.55
2023-05-14T23:32:58.377Z,15.42
2023-05-14T23:38:01.395Z,15.24
2023-05-14T23:43:04.202Z,15.03
2023-05-14T23:48:07.142Z,14.83
2023-05-14T23:53:10.084Z,14.58
2023-05-14T23:58:12.886Z,14.48
